Regional La Paz
EstaciónAerodromoSit. GeograficaDescripción
SLLPInternaciónal El Alto16-08S-68-10W SLLP 131800Z 06011KT 030V100 9999 SCT020 FEW023CB BKN200 15/05 Q1034 A3056 625.9 HR52 CB/SH N/NE/NW RETS AC NOSIG=
SLRYReyes14-18S-67-21W SLRY 131700Z 00000KT 9999 SCT020 32/24 Q1008 A2977 HR61 RWY NML=
SLRQRurrenabaque14-25S-67-29W SLRQ 131700Z 33004KT 9999 BKN020 34/25 Q1006 A2973 982.9 HR60 CI=
SLAPApolo14-44S-68-24W SLAP 131700Z 32010KT 1000 +RA FEW020 SCT050 24/22 Q1025 A3027 HR57=
SLSBSan Borja14-51S-66-44W SLSB 131800Z 33005KT 9999 SCT020 35/24 Q1005 A2969 HR49 RWY NML=
SLCNCharaña17-35S-69-25W
SLOROruro17-57S-67-04W SLOR 131800Z 18003KT 9999 SCT020 FEW023CB 18/07 Q1032 A3049 654 .1 HR48 CB/N AC/CI=
SLUYUyuni20-27S-62-52W SLUY 131800Z 28013KT 9999 FEW030 19/M07 Q1030 A3044 656.1 HR17=
SLCCCopacabana - Tito Yupanqui16-11S-69-05W SLCC 131700Z NIL=
Regional Cochabamba
EstaciónAerodromoSit. GeograficaDescripción
SLVMVillamontes21-15S-63-24W RTD SLVM 131700Z 00000KT 9999 BKN023 36/23 Q1005 A2969 HR48 CI=
SLHIChimore16-58S-65-09W SLHI 131800Z 34006KT 9999 TS FEW017 FEW020CB 34/25 Q1006 A2971 978.9 HR60 CB/TS SW CI=
SLCBCochabamba17-25S-66-10W SLCB 131800Z 07007KT 360V140 9999 FEW030 FEW033CB BKN080 BKN200 25/06 Q1019 A3010 747.0 HR30 CB/SW/W SH/W NOSIG=
SLALAlcantari19-14S-65-09W SLAL 131800Z 06008KT 9999 FEW023 FEW030CB 22/06 Q1023 A3023 700 .2 HR37 CB N/E/SE/S CI=
SLPOPotosí19-32S-65-43W SLPO 131700Z NIL=
SLAGMonteagudo19-49S-63-58W SLAG 131700Z NIL=
SLTJTarija21-33S-64-42W SLTJ 131800Z 17008KT 9999 FEW033 FEW036TCU 28/15 Q1015 A2998 810.9 HR47 TCU NE/SW=
SLYAYacuiba21-57S-63-39W SLYA 131800Z 21006KT 9999 SCT023 FEW025TCU 34/24 Q1006 A2972 931.4 HR57 TCU SW/W AC=
SLBJBermejo22-46S-64-18W SLBJ 131700Z NIL=
Regional Santa Cruz
EstaciónAerodromoSit. GeograficaDescripción
SLVGValle Grande18-28S-64-05W SLVG 131700Z NIL=
SLASAscención de Guarayos15-55S-63-09W SLAS 131700Z 00000KT 9999 SCT020 FEW030CB 33/26 Q1009 A2980 HR67 CB N RWY NML=
SLCPConcepción16-08S-62-01W SLCP 131700Z 33010KT 9999 SCT017 32/23 Q1011 A2985 HR57 RWY NML =
SLJVSan Javier16-16S-62-28W SLJV 131700Z NIL=
SLTISan Matías16-20S-58-24W SLTI 131700Z NIL=
SLSISan Ignacio de Velasco16-23S-60-57W SLSI 131700Z 36008KT 9999 SCT017 BKN070 33/22 Q1008 A2977 HR55 RWY NML=
SLVRInternaciónal Viru Viru17-38S-63-08W SLVR 131800Z 34010G20KT 9999 FEW012 SCT017 BKN200 33/23 Q1006 A2971 HR55 NOSIG=
SLETEl Trompillo17-48S-63-10W SLET 131700Z 31015G25KT 9999 SCT013 BKN015 BKN200 31/23 Q1007 A2975 HR64 NOSIG=
SLJESan José de Chiquitos17-49S-60-44W SLJE 131700Z NIL=
SLRBRoboré18-19S-59-45W SLRB 131700Z 36005KT 9999 SCT020 33/24 Q1010 A2983 HR57 RWY NML =
SLPSPuerto Suárez18-58S-57-49W SLPS 131800Z 36010KT 9999 BKN020 35/24 Q1004 A2965 HR55=
SLCACamiri20-00S-63-31W SLCA 131800Z 00000KT 9999 SCT033 FEW040CB 33/20 Q1008 A2977 HR48 CB N/W RWY NML=
Regional Beni
EstaciónAerodromoSit. GeograficaDescripción
SLTRTrinidad14-49S-64-54W SLTR 131700Z 32006KT 8000 VCSH SCT017 FEW023CB SCT200 34/25 Q1006 A2973 988.4 HR61 CB SE SH N/SE NOSIG=
SLCOCobija11-02S-68-47W SLCO 131800Z 00000KT 9999 FEW0023 FEW025CB SCT080 27/24 Q1007 A2974 979.9 HR84 CB/SE/S CI RERA=
SLGMGuayaramerín10-53S-65-23W SLGM 131700Z 03010KT 8000 VCSH SCT017 FEW020CB 32/24 Q1009 A2981 HR62 CB/SH N=
SLRIRiberalta11-00S-66-04W SLRI 131800Z 03006KT 9999 BKN017 FEW020CB 33/24 Q1007 A2976 HR59 CB N/NW=
SLJOSan Joaquin13-03S-64-39W SLJO 131700Z 32008KT 8000 TS VCSH SCT017 FEW023CB 32/24 Q1007 A2976 HR64 CB/SH N/NE/E/SE TS SE RWY NML=
SLRASan Ramón13-15S-64-36W SLRA 131700Z 12007KT 8000 -TSRA SCT017 FEW020CB BKN200 26/24 Q1008 A2979 HR91 CB NE/E/SE/NW TS NE/NW RWY OPR C206=
SLMGSan Magdalena13-15S-64-36W SLMG 131700Z 32004KT 9999 BKN017 FEW023CB 32/25 Q1008 A2979 HR67 CI CB NW RWY NML=
SLBUBaures13-39S-63-42W SLBU 131700Z 34004KT 9999 SCT017 BKN080 34/23 Q1008 A2978 HR54 RWY NML=
SLSASanta Ana de Yacuma13-45S-65-26W SLSA 131700Z 32008KT 9999 BKN017 34/23 Q1007 A2976 HR55=
SLSRSanta Rosa14-04S-66-47W SLSR 131700Z 35005KT 8000 BKN017 31/23 Q1008 A2977 HR62 FU RWY NML=
SLSMSan Ignacio de Moxos14-57S-65-38W SLSM 131700Z 00000KT 8000 VCSH SCT020 FEW023CB 30/25 Q1007 A2974 HR76 RESHRA CB/SH N/NW RWY HUM OPR=